Time;durP1;ratioP1;P1;durP2;ratioP2;P2;SDS_P1;SDS_P2;PMS_P1;PMS_P2;Temp;Humidity;BMP_temperature;BMP_pressure;BME280_temperature;BME280_humidity;BME280_pressure;Samples;Min_cycle;Max_cycle;Signal;HPM_P1;HPM_P2
2021/04/30 00:01:07;;;;;;;;;;;17.50;99.90;;;;;;5015572;28;19909;-68
2021/04/30 00:03:34;;;;;;;;;;;17.60;99.90;;;;;;5015693;28;19909;-70
2021/04/30 00:06:01;;;;;;;;;;;17.70;99.90;;;;;;5015751;28;20359;-70
2021/04/30 00:08:28;;;;;;;;;;;17.70;99.90;;;;;;5015542;28;20012;-70
2021/04/30 00:10:54;;;;;;;;;;;17.70;99.90;;;;;;5015276;28;19989;-69
2021/04/30 00:13:21;;;;;;;;;;;17.80;99.90;;;;;;5015559;28;19956;-71
2021/04/30 00:15:48;;;;;;;;;;;17.70;99.90;;;;;;5015619;28;20296;-68
2021/04/30 00:18:15;;;;;;;;;;;17.70;99.90;;;;;;5015223;28;19910;-69
2021/04/30 00:20:52;;;;;;;;;;;17.80;99.90;;;;;;5015352;28;19910;-69
2021/04/30 00:23:19;;;;;;;;;;;17.90;99.90;;;;;;5015459;28;20008;-70
2021/04/30 00:25:46;;;;;;;;;;;18.00;99.90;;;;;;5015304;28;20338;-70
2021/04/30 00:28:12;;;;;;;;;;;18.00;99.90;;;;;;5015227;28;19909;-69
2021/04/30 00:30:40;;;;;;;;;;;18.00;99.90;;;;;;5015184;28;19910;-69
2021/04/30 00:33:06;;;;;;;;;;;18.00;99.90;;;;;;5014799;28;20296;-72
2021/04/30 00:35:33;;;;;;;;;;;18.10;99.90;;;;;;5015185;28;19917;-71
2021/04/30 00:37:59;;;;;;;;;;;18.20;99.90;;;;;;5015235;28;20360;-69
2021/04/30 00:40:26;;;;;;;;;;;18.20;99.90;;;;;;5015363;28;20392;-70
2021/04/30 00:42:53;;;;;;;;;;;18.30;99.90;;;;;;5014828;28;19996;-71
2021/04/30 00:45:23;;;;;;;;;;;18.40;99.90;;;;;;5014922;28;19910;-71
2021/04/30 00:47:50;;;;;;;;;;;18.40;99.90;;;;;;5014778;28;19910;-71
2021/04/30 00:50:18;;;;;;;;;;;18.50;99.90;;;;;;5015028;28;19960;-70
2021/04/30 00:52:44;;;;;;;;;;;18.50;99.90;;;;;;5014728;28;20364;-72
2021/04/30 00:55:13;;;;;;;;;;;18.50;99.90;;;;;;4997146;28;19918;-72
2021/04/30 00:57:41;;;;;;;;;;;18.70;99.90;;;;;;5007931;28;20380;-71
2021/04/30 01:00:09;;;;;;;;;;;18.80;99.90;;;;;;4999418;28;20395;-69
2021/04/30 01:02:36;;;;;;;;;;;18.80;99.90;;;;;;4993760;28;20048;-70
2021/04/30 01:05:04;;;;;;;;;;;18.80;99.90;;;;;;5008884;28;20021;-69
2021/04/30 01:07:31;;;;;;;;;;;19.10;99.90;;;;;;5014692;28;19945;-70
2021/04/30 01:09:57;;;;;;;;;;;19.60;99.90;;;;;;5014671;28;19913;-72
2021/04/30 01:12:24;;;;;;;;;;;19.80;99.90;;;;;;4997018;28;19948;-69
2021/04/30 01:14:51;;;;;;;;;;;20.10;99.90;;;;;;4996651;28;20383;-71
2021/04/30 01:17:18;;;;;;;;;;;20.30;99.90;;;;;;4996530;28;19913;-69
2021/04/30 01:19:45;;;;;;;;;;;20.60;99.90;;;;;;5014394;28;19960;-71
2021/04/30 01:22:11;;;;;;;;;;;20.70;99.90;;;;;;5014359;28;19916;-70
2021/04/30 01:24:38;;;;;;;;;;;20.50;99.90;;;;;;4996576;28;20327;-72
2021/04/30 01:27:05;;;;;;;;;;;20.10;99.90;;;;;;5013835;28;19909;-70
2021/04/30 01:29:31;;;;;;;;;;;19.90;99.90;;;;;;5014363;28;20427;-70
2021/04/30 01:31:58;;;;;;;;;;;19.70;99.90;;;;;;5013949;28;20340;-70
2021/04/30 01:34:25;;;;;;;;;;;19.70;99.90;;;;;;5013936;28;19909;-72
2021/04/30 01:36:51;;;;;;;;;;;19.60;99.90;;;;;;5013815;28;19913;-70
2021/04/30 01:39:18;;;;;;;;;;;19.50;99.90;;;;;;5014001;28;19922;-70
2021/04/30 01:41:48;;;;;;;;;;;19.50;99.90;;;;;;5013763;28;19991;-71
2021/04/30 01:44:15;;;;;;;;;;;19.60;99.90;;;;;;5013790;28;19916;-70
2021/04/30 01:46:41;;;;;;;;;;;19.70;99.90;;;;;;5013574;28;19910;-69
2021/04/30 01:49:09;;;;;;;;;;;19.90;99.90;;;;;;5014061;28;19917;-71
2021/04/30 01:51:36;;;;;;;;;;;20.00;99.90;;;;;;5013719;28;20296;-71
2021/04/30 01:54:05;;;;;;;;;;;20.00;99.90;;;;;;5013785;28;19910;-71
2021/04/30 01:56:33;;;;;;;;;;;20.00;99.90;;;;;;5013512;28;19917;-72
2021/04/30 01:59:00;;;;;;;;;;;20.10;99.90;;;;;;5013430;28;19948;-68
2021/04/30 02:01:27;;;;;;;;;;;20.40;99.90;;;;;;5010976;28;19920;-69
2021/04/30 02:03:58;;;;;;;;;;;20.40;99.90;;;;;;5011581;28;19913;-68
2021/04/30 02:06:25;;;;;;;;;;;20.50;99.90;;;;;;5011310;28;19964;-70
2021/04/30 02:08:53;;;;;;;;;;;20.50;99.90;;;;;;5011136;28;19910;-69
2021/04/30 02:11:20;;;;;;;;;;;20.50;99.90;;;;;;5011534;28;19909;-71
2021/04/30 02:13:47;;;;;;;;;;;20.50;99.90;;;;;;5011000;28;20261;-71
2021/04/30 02:16:13;;;;;;;;;;;20.50;99.90;;;;;;5011161;28;19960;-71
2021/04/30 02:18:40;;;;;;;;;;;20.50;99.90;;;;;;5011262;28;20293;-70
2021/04/30 02:21:07;;;;;;;;;;;20.50;99.90;;;;;;5011036;28;19914;-71
2021/04/30 02:23:33;;;;;;;;;;;20.50;99.90;;;;;;5011275;28;20395;-71
2021/04/30 02:26:00;;;;;;;;;;;20.50;99.90;;;;;;5010980;28;19913;-69
2021/04/30 02:28:27;;;;;;;;;;;20.50;99.90;;;;;;5010985;28;19983;-71
2021/04/30 02:30:53;;;;;;;;;;;20.40;99.90;;;;;;5010979;28;19924;-73
2021/04/30 02:33:20;;;;;;;;;;;20.40;99.90;;;;;;5011075;28;20490;-69
2021/04/30 02:35:48;;;;;;;;;;;20.50;99.90;;;;;;5011008;28;20016;-72
2021/04/30 02:38:15;;;;;;;;;;;20.70;99.90;;;;;;5011189;28;20431;-72
2021/04/30 02:40:46;;;;;;;;;;;20.80;99.90;;;;;;5010616;28;20052;-71
2021/04/30 02:43:14;;;;;;;;;;;20.80;99.90;;;;;;5011271;28;19959;-71
2021/04/30 02:45:41;;;;;;;;;;;20.90;99.90;;;;;;5010876;28;20410;-70
2021/04/30 02:48:14;;;;;;;;;;;21.10;99.90;;;;;;5011186;28;19936;-73
2021/04/30 02:50:41;;;;;;;;;;;21.10;99.90;;;;;;5010989;28;19952;-71
2021/04/30 02:53:24;;;;;;;;;;;;;;;;;;;;;
2021/04/30 02:55:51;;;;;;;;;;;21.20;99.90;;;;;;5011126;28;19918;-72
2021/04/30 02:58:18;;;;;;;;;;;21.30;99.90;;;;;;5011313;28;19913;-71
2021/04/30 03:00:45;;;;;;;;;;;21.30;99.90;;;;;;5010727;28;19997;-71
2021/04/30 03:03:15;;;;;;;;;;;21.20;99.90;;;;;;5011081;28;19916;-69
2021/04/30 03:05:42;;;;;;;;;;;21.30;99.90;;;;;;5010751;28;19910;-73
2021/04/30 03:08:09;;;;;;;;;;;21.30;99.90;;;;;;5011185;28;19910;-72
2021/04/30 03:10:36;;;;;;;;;;;21.20;99.90;;;;;;5011163;28;19917;-72
2021/04/30 03:13:03;;;;;;;;;;;21.20;99.90;;;;;;5010773;28;19914;-71
2021/04/30 03:15:30;;;;;;;;;;;21.20;99.90;;;;;;5010376;28;19918;-69
2021/04/30 03:17:56;;;;;;;;;;;21.30;99.90;;;;;;5010801;28;20361;-70
2021/04/30 03:20:23;;;;;;;;;;;21.30;99.90;;;;;;5010435;28;20285;-70
2021/04/30 03:22:50;;;;;;;;;;;21.30;99.90;;;;;;5010607;28;19917;-71
2021/04/30 03:25:17;;;;;;;;;;;21.30;99.90;;;;;;5012359;28;20284;-71
2021/04/30 03:27:44;;;;;;;;;;;21.40;99.90;;;;;;5014385;28;19964;-70
2021/04/30 03:30:11;;;;;;;;;;;21.50;99.90;;;;;;5014400;28;19945;-70
2021/04/30 03:32:39;;;;;;;;;;;21.60;99.90;;;;;;5014148;28;19917;-72
2021/04/30 03:35:06;;;;;;;;;;;21.70;99.90;;;;;;5013859;28;19917;-72
2021/04/30 03:37:33;;;;;;;;;;;21.70;99.90;;;;;;5014311;28;19949;-69
2021/04/30 03:39:59;;;;;;;;;;;21.60;99.90;;;;;;4996484;28;20288;-69
2021/04/30 03:42:26;;;;;;;;;;;21.50;99.90;;;;;;5014459;28;19957;-71
2021/04/30 03:44:53;;;;;;;;;;;21.30;99.90;;;;;;5013716;28;19914;-72
2021/04/30 03:47:19;;;;;;;;;;;21.40;99.90;;;;;;5014056;28;20008;-71
2021/04/30 03:49:46;;;;;;;;;;;21.30;99.90;;;;;;5013902;28;19980;-72
2021/04/30 03:52:13;;;;;;;;;;;21.40;99.90;;;;;;5014036;28;19909;-72
2021/04/30 03:54:39;;;;;;;;;;;21.40;99.90;;;;;;5013981;28;19913;-72
2021/04/30 03:57:06;;;;;;;;;;;21.40;99.90;;;;;;5013582;28;19925;-71
2021/04/30 03:59:33;;;;;;;;;;;21.40;99.90;;;;;;5013556;28;19957;-72
2021/04/30 04:01:59;;;;;;;;;;;21.20;99.90;;;;;;5013789;28;19917;-71
2021/04/30 04:04:26;;;;;;;;;;;21.10;99.90;;;;;;5013784;28;20492;-73
2021/04/30 04:06:53;;;;;;;;;;;20.90;99.90;;;;;;5013528;28;20656;-72
2021/04/30 04:09:19;;;;;;;;;;;20.90;99.90;;;;;;5013610;28;19956;-72
2021/04/30 04:11:46;;;;;;;;;;;20.80;99.90;;;;;;5013092;28;19913;-70
2021/04/30 04:14:13;;;;;;;;;;;20.60;99.90;;;;;;5013475;28;19916;-71
2021/04/30 04:16:39;;;;;;;;;;;20.70;99.90;;;;;;5013300;28;19939;-70
2021/04/30 04:19:06;;;;;;;;;;;20.60;99.90;;;;;;5013229;28;19909;-72
2021/04/30 04:21:36;;;;;;;;;;;20.60;99.90;;;;;;5013299;28;20295;-71
2021/04/30 04:24:02;;;;;;;;;;;20.70;99.90;;;;;;5013020;28;19914;-69
2021/04/30 04:26:29;;;;;;;;;;;20.70;99.90;;;;;;5013681;28;19914;-71
2021/04/30 04:28:56;;;;;;;;;;;20.70;99.90;;;;;;5013135;28;19913;-72
2021/04/30 04:31:22;;;;;;;;;;;20.70;99.90;;;;;;5013188;28;19916;-71
2021/04/30 04:33:49;;;;;;;;;;;20.70;99.90;;;;;;5013182;28;19958;-70
2021/04/30 04:36:16;;;;;;;;;;;20.70;99.90;;;;;;5013186;28;19949;-71
2021/04/30 04:38:42;;;;;;;;;;;20.70;99.90;;;;;;5012610;28;19917;-71
2021/04/30 04:41:09;;;;;;;;;;;20.50;99.90;;;;;;5012778;28;19929;-70
2021/04/30 04:43:36;;;;;;;;;;;20.50;99.90;;;;;;5013134;28;19913;-69
2021/04/30 04:46:02;;;;;;;;;;;20.50;99.90;;;;;;5012901;28;19951;-70
2021/04/30 04:48:29;;;;;;;;;;;20.50;99.90;;;;;;5012938;28;20016;-70
2021/04/30 04:50:56;;;;;;;;;;;20.50;99.90;;;;;;5012513;28;20273;-70
2021/04/30 04:53:22;;;;;;;;;;;20.40;99.90;;;;;;5012653;28;19984;-71
2021/04/30 04:55:49;;;;;;;;;;;20.40;99.90;;;;;;5012693;28;20016;-68
2021/04/30 04:58:16;;;;;;;;;;;20.40;99.90;;;;;;5012784;28;19961;-68
2021/04/30 05:00:42;;;;;;;;;;;20.40;99.90;;;;;;5012494;28;19921;-69
2021/04/30 05:03:09;;;;;;;;;;;20.40;99.90;;;;;;5012323;28;19936;-70
2021/04/30 05:05:35;;;;;;;;;;;20.30;99.90;;;;;;5012420;28;20003;-71
2021/04/30 05:08:02;;;;;;;;;;;20.30;99.90;;;;;;5012353;28;20056;-69
2021/04/30 05:10:29;;;;;;;;;;;20.20;99.90;;;;;;5012645;28;20000;-70
2021/04/30 05:12:56;;;;;;;;;;;20.20;99.90;;;;;;5011372;28;20365;-70
2021/04/30 05:15:22;;;;;;;;;;;20.10;99.90;;;;;;5012505;28;20276;-72
2021/04/30 05:17:49;;;;;;;;;;;20.00;99.90;;;;;;5011942;28;20016;-71
2021/04/30 05:20:15;;;;;;;;;;;20.00;99.90;;;;;;5012290;28;19913;-71
2021/04/30 05:22:43;;;;;;;;;;;20.00;99.90;;;;;;5012124;28;19913;-71
2021/04/30 05:25:11;;;;;;;;;;;20.00;99.90;;;;;;5012227;28;19913;-72
2021/04/30 05:27:41;;;;;;;;;;;20.00;99.90;;;;;;5012142;28;19921;-70
2021/04/30 05:30:09;;;;;;;;;;;20.00;99.90;;;;;;5011597;28;19913;-71
2021/04/30 05:32:36;;;;;;;;;;;20.10;99.90;;;;;;5012176;28;19909;-72
2021/04/30 05:35:03;;;;;;;;;;;20.10;99.90;;;;;;5011815;28;19924;-72
2021/04/30 05:37:31;;;;;;;;;;;20.00;99.90;;;;;;5011963;28;19956;-73
2021/04/30 05:39:58;;;;;;;;;;;19.90;99.90;;;;;;4994304;28;20650;-72
2021/04/30 05:42:28;;;;;;;;;;;19.90;99.90;;;;;;5011329;28;20381;-72
2021/04/30 05:44:54;;;;;;;;;;;19.90;99.90;;;;;;5011695;28;19914;-71
2021/04/30 05:47:22;;;;;;;;;;;19.90;99.90;;;;;;5011556;28;19913;-69
2021/04/30 05:49:49;;;;;;;;;;;19.90;99.90;;;;;;5011735;28;20566;-70
2021/04/30 05:52:15;;;;;;;;;;;19.90;99.90;;;;;;5011835;28;20634;-71
2021/04/30 05:54:42;;;;;;;;;;;19.90;99.90;;;;;;5011731;28;19914;-69
2021/04/30 05:57:09;;;;;;;;;;;19.90;99.90;;;;;;5011465;28;20008;-71
2021/04/30 05:59:36;;;;;;;;;;;19.90;99.90;;;;;;5011575;28;19956;-68
2021/04/30 06:02:02;;;;;;;;;;;19.80;99.90;;;;;;5011700;28;20000;-70
2021/04/30 06:04:29;;;;;;;;;;;19.80;99.90;;;;;;5011349;28;19921;-72
2021/04/30 06:06:56;;;;;;;;;;;19.70;99.90;;;;;;5011110;28;19914;-70
2021/04/30 06:09:26;;;;;;;;;;;19.70;99.90;;;;;;5011008;28;19953;-72
2021/04/30 06:11:53;;;;;;;;;;;19.70;99.90;;;;;;5011333;28;20056;-69
2021/04/30 06:14:20;;;;;;;;;;;19.60;99.90;;;;;;5011385;28;20391;-71
2021/04/30 06:16:46;;;;;;;;;;;19.60;99.90;;;;;;5011129;28;20014;-72
2021/04/30 06:19:13;;;;;;;;;;;19.60;99.90;;;;;;5011590;28;20574;-72
2021/04/30 06:21:40;;;;;;;;;;;19.60;99.90;;;;;;5010904;28;19961;-71
2021/04/30 06:24:07;;;;;;;;;;;19.50;99.90;;;;;;5011385;28;19985;-69
2021/04/30 06:26:33;;;;;;;;;;;19.40;99.90;;;;;;5011262;28;19916;-71
2021/04/30 06:29:00;;;;;;;;;;;19.50;99.90;;;;;;5011257;28;19920;-70
2021/04/30 06:31:27;;;;;;;;;;;19.40;99.90;;;;;;4994614;28;19972;-72
2021/04/30 06:33:53;;;;;;;;;;;19.40;99.90;;;;;;5013193;28;19910;-72
2021/04/30 06:36:21;;;;;;;;;;;19.40;99.90;;;;;;5013160;28;20364;-72
2021/04/30 06:38:47;;;;;;;;;;;19.40;99.90;;;;;;5013052;28;20334;-73
2021/04/30 06:41:14;;;;;;;;;;;19.40;99.90;;;;;;5013212;28;19922;-71
2021/04/30 06:43:41;;;;;;;;;;;19.40;99.90;;;;;;4995460;28;19937;-71
2021/04/30 06:46:08;;;;;;;;;;;19.30;99.90;;;;;;5012869;28;19916;-71
2021/04/30 06:48:34;;;;;;;;;;;19.20;99.90;;;;;;5013178;28;19913;-71
2021/04/30 06:51:01;;;;;;;;;;;19.20;99.90;;;;;;5012770;28;19910;-71
2021/04/30 06:53:28;;;;;;;;;;;19.20;99.90;;;;;;5013258;28;19913;-71
2021/04/30 06:55:54;;;;;;;;;;;19.10;99.90;;;;;;5012827;28;19971;-73
2021/04/30 06:58:21;;;;;;;;;;;19.10;99.90;;;;;;5012960;28;20000;-73
2021/04/30 07:00:47;;;;;;;;;;;19.10;99.90;;;;;;5015195;28;19909;-72
2021/04/30 07:03:14;;;;;;;;;;;19.00;99.90;;;;;;5017070;28;19909;-72
2021/04/30 07:05:41;;;;;;;;;;;19.00;99.90;;;;;;5016821;28;19909;-72
2021/04/30 07:08:07;;;;;;;;;;;19.00;99.90;;;;;;5016899;28;19913;-71
2021/04/30 07:10:34;;;;;;;;;;;18.90;99.90;;;;;;5016853;28;19948;-71
2021/04/30 07:13:01;;;;;;;;;;;18.90;99.90;;;;;;5016393;28;19917;-71
2021/04/30 07:15:28;;;;;;;;;;;18.90;99.90;;;;;;5016573;28;19921;-71
2021/04/30 07:17:54;;;;;;;;;;;18.80;99.90;;;;;;5016608;28;19910;-72
2021/04/30 07:20:22;;;;;;;;;;;18.80;99.90;;;;;;5016431;28;20008;-70
2021/04/30 07:22:49;;;;;;;;;;;18.80;99.90;;;;;;5016431;28;20416;-71
2021/04/30 07:25:15;;;;;;;;;;;18.80;99.90;;;;;;5016551;28;20004;-70
2021/04/30 07:27:42;;;;;;;;;;;18.70;99.90;;;;;;5016616;28;19913;-69
2021/04/30 07:30:09;;;;;;;;;;;18.70;99.90;;;;;;5016183;28;20262;-68
2021/04/30 07:32:36;;;;;;;;;;;18.60;99.90;;;;;;5016407;28;19910;-68
2021/04/30 07:35:02;;;;;;;;;;;18.60;99.90;;;;;;4998339;28;20013;-69
2021/04/30 07:37:29;;;;;;;;;;;18.50;99.90;;;;;;5016187;28;19945;-69
2021/04/30 07:39:56;;;;;;;;;;;18.60;99.90;;;;;;5014786;28;19924;-69
2021/04/30 07:42:22;;;;;;;;;;;18.60;99.90;;;;;;5013948;28;19928;-71
2021/04/30 07:44:49;;;;;;;;;;;18.60;99.90;;;;;;5013880;28;19910;-69
2021/04/30 07:47:16;;;;;;;;;;;18.60;99.90;;;;;;5014520;28;19910;-69
2021/04/30 07:49:42;;;;;;;;;;;18.50;99.90;;;;;;5014215;28;19916;-71
2021/04/30 07:52:10;;;;;;;;;;;18.50;99.90;;;;;;5013761;28;19913;-71
2021/04/30 07:54:36;;;;;;;;;;;18.50;99.90;;;;;;5013621;28;19909;-72
2021/04/30 07:57:05;;;;;;;;;;;18.50;99.90;;;;;;5013763;28;20000;-70
2021/04/30 07:59:33;;;;;;;;;;;18.50;99.90;;;;;;5014210;28;19945;-71
2021/04/30 08:01:59;;;;;;;;;;;18.40;99.90;;;;;;5013818;28;19914;-71
2021/04/30 08:04:26;;;;;;;;;;;18.40;99.90;;;;;;5013717;28;19914;-70
2021/04/30 08:06:53;;;;;;;;;;;18.50;99.90;;;;;;5013355;28;19964;-70
2021/04/30 08:09:19;;;;;;;;;;;18.40;99.90;;;;;;5013740;28;19917;-69
2021/04/30 08:11:46;;;;;;;;;;;18.40;99.90;;;;;;5013316;28;19909;-69
2021/04/30 08:14:13;;;;;;;;;;;18.50;99.90;;;;;;5013688;28;19917;-71
2021/04/30 08:16:40;;;;;;;;;;;18.60;99.90;;;;;;5013360;28;19928;-71
2021/04/30 08:19:07;;;;;;;;;;;18.60;99.90;;;;;;4995311;28;19968;-70
2021/04/30 08:21:34;;;;;;;;;;;18.60;99.90;;;;;;5013684;28;19913;-71
2021/04/30 08:24:01;;;;;;;;;;;18.60;99.90;;;;;;5013905;28;20012;-70
2021/04/30 08:26:28;;;;;;;;;;;18.50;99.90;;;;;;5013712;28;19913;-72
2021/04/30 08:28:54;;;;;;;;;;;18.50;99.90;;;;;;5013270;28;20364;-69
2021/04/30 08:31:26;;;;;;;;;;;18.50;99.90;;;;;;5013321;28;19913;-69
2021/04/30 08:33:53;;;;;;;;;;;18.50;99.90;;;;;;5012646;28;19931;-71
2021/04/30 08:36:21;;;;;;;;;;;18.60;99.90;;;;;;5013417;28;20017;-74
2021/04/30 08:38:48;;;;;;;;;;;18.60;99.90;;;;;;5013335;28;19940;-72
2021/04/30 08:41:16;;;;;;;;;;;18.60;99.90;;;;;;5013394;28;20372;-68
2021/04/30 08:43:46;;;;;;;;;;;18.50;99.90;;;;;;5013165;28;19920;-68
2021/04/30 08:46:13;;;;;;;;;;;18.50;99.90;;;;;;5013394;28;19916;-70
2021/04/30 08:48:40;;;;;;;;;;;18.50;99.90;;;;;;5013041;28;19921;-72
2021/04/30 08:51:07;;;;;;;;;;;18.40;99.90;;;;;;5013321;28;19914;-72
2021/04/30 08:53:33;;;;;;;;;;;18.50;99.90;;;;;;5013120;28;19913;-72
2021/04/30 08:56:03;;;;;;;;;;;18.40;99.90;;;;;;5012948;28;20451;-71
2021/04/30 08:58:30;;;;;;;;;;;18.40;99.90;;;;;;5012699;28;20435;-72
2021/04/30 09:00:57;;;;;;;;;;;18.40;99.90;;;;;;5012890;28;19909;-71
2021/04/30 09:03:23;;;;;;;;;;;18.40;99.90;;;;;;5010186;28;19909;-71
2021/04/30 09:05:51;;;;;;;;;;;18.40;99.90;;;;;;5013584;28;19988;-69
2021/04/30 09:08:19;;;;;;;;;;;18.50;99.90;;;;;;5014844;28;19914;-70
2021/04/30 09:10:50;;;;;;;;;;;18.50;99.90;;;;;;5015503;28;19961;-71
2021/04/30 09:13:21;;;;;;;;;;;18.50;99.90;;;;;;5021950;28;19910;-68
2021/04/30 09:15:49;;;;;;;;;;;18.50;99.90;;;;;;5024381;28;19928;-70
2021/04/30 09:18:27;;;;;;;;;;;18.40;99.90;;;;;;5020579;28;19910;-73
2021/04/30 09:20:55;;;;;;;;;;;18.40;99.90;;;;;;5014408;28;19910;-72
2021/04/30 09:23:31;;;;;;;;;;;18.40;99.90;;;;;;5013885;28;19916;-71
2021/04/30 09:25:57;;;;;;;;;;;18.30;99.90;;;;;;5014669;28;19909;-71
2021/04/30 09:28:24;;;;;;;;;;;18.30;99.90;;;;;;5013697;28;20004;-68
2021/04/30 09:30:52;;;;;;;;;;;18.30;99.90;;;;;;5013906;28;19913;-71
2021/04/30 09:33:20;;;;;;;;;;;18.30;99.90;;;;;;5013997;28;20013;-69
2021/04/30 09:35:51;;;;;;;;;;;18.20;99.90;;;;;;5013965;28;19964;-72
2021/04/30 09:38:24;;;;;;;;;;;18.20;99.90;;;;;;5014122;28;19917;-69
2021/04/30 09:40:52;;;;;;;;;;;18.10;99.90;;;;;;5013593;28;19917;-72
2021/04/30 09:43:19;;;;;;;;;;;18.10;99.90;;;;;;5013190;28;19949;-71
2021/04/30 09:45:46;;;;;;;;;;;18.10;99.90;;;;;;5013950;28;19909;-71
2021/04/30 09:48:13;;;;;;;;;;;18.10;99.90;;;;;;5014057;28;19916;-73
2021/04/30 09:50:41;;;;;;;;;;;18.10;99.90;;;;;;5014179;28;19949;-72
2021/04/30 09:53:10;;;;;;;;;;;18.10;99.90;;;;;;5014064;28;19921;-73
2021/04/30 09:55:40;;;;;;;;;;;18.10;99.90;;;;;;5013838;28;19974;-71
2021/04/30 09:58:19;;;;;;;;;;;18.10;99.90;;;;;;5013399;28;19991;-74
2021/04/30 10:00:47;;;;;;;;;;;18.20;99.90;;;;;;5013550;28;19909;-71
2021/04/30 10:03:24;;;;;;;;;;;18.20;99.90;;;;;;5013530;28;20364;-70
2021/04/30 10:05:58;;;;;;;;;;;18.20;99.90;;;;;;5013552;28;19917;-73
2021/04/30 10:08:24;;;;;;;;;;;18.20;99.90;;;;;;5013753;28;19917;-73
2021/04/30 10:10:51;;;;;;;;;;;18.20;99.90;;;;;;5013048;28;20267;-73
2021/04/30 10:13:18;;;;;;;;;;;18.20;99.90;;;;;;5013502;28;19975;-71
2021/04/30 10:15:44;;;;;;;;;;;18.20;99.90;;;;;;5013616;28;19921;-73
2021/04/30 10:18:14;;;;;;;;;;;18.20;99.90;;;;;;4995933;28;20422;-73
2021/04/30 10:20:41;;;;;;;;;;;18.10;99.90;;;;;;5013414;28;19909;-72
2021/04/30 10:23:12;;;;;;;;;;;18.10;99.90;;;;;;5013608;28;20360;-72
2021/04/30 10:25:39;;;;;;;;;;;18.10;99.90;;;;;;5012799;28;19975;-73
2021/04/30 10:28:06;;;;;;;;;;;18.10;99.90;;;;;;5013241;28;19909;-72
2021/04/30 10:30:39;;;;;;;;;;;18.10;99.90;;;;;;5013386;28;20341;-72
2021/04/30 10:33:09;;;;;;;;;;;18.10;99.90;;;;;;5013036;28;19967;-72
2021/04/30 10:35:45;;;;;;;;;;;18.10;99.90;;;;;;5013362;28;20329;-73
2021/04/30 10:38:20;;;;;;;;;;;18.10;99.90;;;;;;5013298;28;19916;-73
2021/04/30 10:40:52;;;;;;;;;;;18.00;99.90;;;;;;5014987;28;20379;-73
2021/04/30 10:43:21;;;;;;;;;;;18.00;99.90;;;;;;5018256;28;19917;-73
2021/04/30 10:46:05;;;;;;;;;;;18.00;99.90;;;;;;5017516;28;20477;-73
2021/04/30 10:48:33;;;;;;;;;;;18.00;99.90;;;;;;5013551;28;19964;-72
2021/04/30 10:51:15;;;;;;;;;;;17.90;99.90;;;;;;5013013;28;19909;-72
2021/04/30 10:53:46;;;;;;;;;;;18.00;99.90;;;;;;5013501;28;20044;-74
2021/04/30 10:56:30;;;;;;;;;;;18.00;99.90;;;;;;5013123;28;19972;-74
2021/04/30 10:58:57;;;;;;;;;;;17.90;99.90;;;;;;5012924;28;19909;-69
2021/04/30 11:01:34;;;;;;;;;;;17.90;99.90;;;;;;5013164;28;20005;-71
2021/04/30 11:04:10;;;;;;;;;;;17.90;99.90;;;;;;5013252;28;19910;-71
2021/04/30 11:06:37;;;;;;;;;;;17.90;99.90;;;;;;5013088;28;19963;-71
2021/04/30 11:09:27;;;;;;;;;;;17.90;99.90;;;;;;5012906;28;20364;-70
2021/04/30 11:11:59;;;;;;;;;;;17.90;99.90;;;;;;5005722;28;20424;-71
2021/04/30 11:14:27;;;;;;;;;;;17.90;99.90;;;;;;5012745;28;19909;-71
2021/04/30 11:16:56;;;;;;;;;;;17.80;99.90;;;;;;5012794;28;19918;-71
2021/04/30 11:19:25;;;;;;;;;;;17.80;99.90;;;;;;5013417;28;19964;-70
2021/04/30 11:22:10;;;;;;;;;;;17.80;99.90;;;;;;5014030;28;19910;-69
2021/04/30 11:24:42;;;;;;;;;;;17.80;99.90;;;;;;5013770;28;19909;-74
2021/04/30 11:27:12;;;;;;;;;;;17.90;99.90;;;;;;4996234;28;19909;-71
2021/04/30 11:29:39;;;;;;;;;;;17.90;99.90;;;;;;5013230;28;20000;-71
2021/04/30 11:32:25;;;;;;;;;;;17.90;99.90;;;;;;5012998;28;20004;-69
2021/04/30 11:34:53;;;;;;;;;;;18.00;99.90;;;;;;5012782;28;19957;-71
2021/04/30 11:37:21;;;;;;;;;;;18.00;99.90;;;;;;5012706;28;20288;-71
2021/04/30 11:39:54;;;;;;;;;;;18.00;99.90;;;;;;5012310;28;20353;-68
2021/04/30 11:42:20;;;;;;;;;;;17.90;99.90;;;;;;5012436;28;19928;-69
2021/04/30 11:44:47;;;;;;;;;;;17.90;99.90;;;;;;5011879;28;19910;-72
2021/04/30 11:47:15;;;;;;;;;;;17.90;99.90;;;;;;5015749;28;20368;-71
2021/04/30 11:49:42;;;;;;;;;;;17.80;99.90;;;;;;5016309;28;19909;-69
2021/04/30 11:52:13;;;;;;;;;;;17.80;99.90;;;;;;5016190;28;20279;-70
2021/04/30 11:54:41;;;;;;;;;;;17.80;99.90;;;;;;5015750;28;19963;-69
2021/04/30 11:57:12;;;;;;;;;;;17.70;99.90;;;;;;5015224;28;19909;-70
2021/04/30 11:59:40;;;;;;;;;;;17.70;99.90;;;;;;5016070;28;19910;-69
2021/04/30 12:02:09;;;;;;;;;;;17.70;99.90;;;;;;5015142;28;19909;-70
2021/04/30 12:04:42;;;;;;;;;;;17.60;99.90;;;;;;5015865;28;19917;-69
2021/04/30 12:07:10;;;;;;;;;;;17.70;99.90;;;;;;5019388;28;19916;-70
2021/04/30 12:09:37;;;;;;;;;;;17.60;99.90;;;;;;5021659;28;19958;-69
2021/04/30 12:12:17;;;;;;;;;;;17.60;99.90;;;;;;5022315;28;19941;-68
2021/04/30 12:14:45;;;;;;;;;;;17.60;99.90;;;;;;5018286;28;20000;-68
2021/04/30 12:17:21;;;;;;;;;;;17.60;99.90;;;;;;5015747;28;20388;-69
2021/04/30 12:19:55;;;;;;;;;;;17.60;99.90;;;;;;5015664;28;19972;-69
2021/04/30 12:22:22;;;;;;;;;;;17.60;99.90;;;;;;5015713;28;19910;-71
2021/04/30 12:24:49;;;;;;;;;;;17.70;99.90;;;;;;5014930;28;19954;-72
2021/04/30 12:27:29;;;;;;;;;;;17.70;99.90;;;;;;5015330;28;19918;-72
2021/04/30 12:29:56;;;;;;;;;;;17.60;99.90;;;;;;5015404;28;19949;-71
2021/04/30 12:32:26;;;;;;;;;;;17.70;99.90;;;;;;5015628;28;19917;-72
2021/04/30 12:34:53;;;;;;;;;;;17.70;99.90;;;;;;5015112;28;20361;-72
2021/04/30 12:37:21;;;;;;;;;;;17.70;99.90;;;;;;5015098;28;19913;-70
2021/04/30 12:39:48;;;;;;;;;;;17.70;99.90;;;;;;5014797;28;19987;-71
2021/04/30 12:42:14;;;;;;;;;;;17.70;99.90;;;;;;5014927;28;19975;-71
2021/04/30 12:44:52;;;;;;;;;;;17.60;99.90;;;;;;5015084;28;20268;-70
2021/04/30 12:47:19;;;;;;;;;;;17.70;99.90;;;;;;5015109;28;19916;-70
2021/04/30 12:49:46;;;;;;;;;;;17.60;99.90;;;;;;5014792;28;19916;-71
2021/04/30 12:52:14;;;;;;;;;;;17.70;99.90;;;;;;5014766;28;19979;-68
2021/04/30 12:54:41;;;;;;;;;;;17.60;99.90;;;;;;5014072;28;19909;-71
2021/04/30 12:57:08;;;;;;;;;;;17.60;99.90;;;;;;5013649;28;19948;-71
2021/04/30 12:59:35;;;;;;;;;;;17.60;99.90;;;;;;5014486;28;19920;-70
2021/04/30 13:02:12;;;;;;;;;;;17.60;99.90;;;;;;5014751;28;19992;-72
2021/04/30 13:04:45;;;;;;;;;;;17.60;99.90;;;;;;5014696;28;19933;-72
2021/04/30 13:07:12;;;;;;;;;;;17.60;99.90;;;;;;5014173;28;19917;-71
2021/04/30 13:09:41;;;;;;;;;;;17.60;99.90;;;;;;5014141;28;20364;-72
2021/04/30 13:12:10;;;;;;;;;;;17.60;99.90;;;;;;5014475;28;20368;-71
2021/04/30 13:14:43;;;;;;;;;;;17.60;99.90;;;;;;4996655;28;19920;-70
2021/04/30 13:17:23;;;;;;;;;;;17.60;99.90;;;;;;5015160;28;20292;-73
2021/04/30 13:19:51;;;;;;;;;;;17.70;99.90;;;;;;4997167;28;19909;-73
2021/04/30 13:22:23;;;;;;;;;;;17.70;99.90;;;;;;5014509;28;19910;-72
2021/04/30 13:24:54;;;;;;;;;;;17.80;99.90;;;;;;5014337;28;19913;-73
2021/04/30 13:27:21;;;;;;;;;;;17.80;99.90;;;;;;4997492;28;19963;-74
2021/04/30 13:29:49;;;;;;;;;;;17.80;99.90;;;;;;5014608;28;20299;-73
2021/04/30 13:32:20;;;;;;;;;;;17.80;99.90;;;;;;5014490;28;20344;-73
2021/04/30 13:34:55;;;;;;;;;;;17.70;99.90;;;;;;5014410;28;19916;-73
2021/04/30 13:37:23;;;;;;;;;;;17.60;99.90;;;;;;5000276;28;20325;-71
2021/04/30 13:39:51;;;;;;;;;;;17.60;99.90;;;;;;5023431;28;20003;-72
2021/04/30 13:42:36;;;;;;;;;;;17.50;99.90;;;;;;5019830;28;20280;-73
2021/04/30 13:45:07;;;;;;;;;;;17.50;99.90;;;;;;5013612;28;19921;-73
2021/04/30 13:47:41;;;;;;;;;;;17.40;99.90;;;;;;4995877;28;20283;-71
2021/04/30 13:50:10;;;;;;;;;;;17.40;99.90;;;;;;5002604;28;19917;-73
2021/04/30 13:52:37;;;;;;;;;;;17.40;99.90;;;;;;5014048;28;20337;-72
2021/04/30 13:55:04;;;;;;;;;;;17.40;99.90;;;;;;5013299;28;19913;-72
2021/04/30 13:57:31;;;;;;;;;;;17.40;99.90;;;;;;5014015;28;19909;-73
2021/04/30 14:00:00;;;;;;;;;;;17.40;99.90;;;;;;5013762;28;19964;-72
2021/04/30 14:02:27;;;;;;;;;;;17.30;99.90;;;;;;5013818;28;19999;-74
2021/04/30 14:04:54;;;;;;;;;;;17.40;99.90;;;;;;5013610;28;20375;-73
2021/04/30 14:07:20;;;;;;;;;;;17.20;99.90;;;;;;5013707;28;20284;-73
2021/04/30 14:09:48;;;;;;;;;;;17.20;99.90;;;;;;5013136;28;19913;-74
2021/04/30 14:12:16;;;;;;;;;;;17.10;99.90;;;;;;5013826;28;19914;-72
2021/04/30 14:14:43;;;;;;;;;;;17.10;99.90;;;;;;5014631;28;19909;-71
2021/04/30 14:17:10;;;;;;;;;;;17.00;99.90;;;;;;4996175;28;20013;-72
2021/04/30 14:19:36;;;;;;;;;;;17.00;99.90;;;;;;5013794;28;20356;-71
2021/04/30 14:22:04;;;;;;;;;;;16.90;99.90;;;;;;5013642;28;19917;-70
2021/04/30 14:24:31;;;;;;;;;;;16.90;99.90;;;;;;5013626;28;20386;-71